sensor_id;sensor_type;location;lat;lon;timestamp;pressure;altitude;pressure_sealevel;temperature;humidity
60817;BME280;51921;51.518;-3.188;2023-02-19T00:01:28;102113.77;;;6.99;100.00
60817;BME280;51921;51.518;-3.188;2023-02-19T00:03:54;102110.54;;;8.35;100.00
60817;BME280;51921;51.518;-3.188;2023-02-19T00:06:18;102120.99;;;9.57;100.00
60817;BME280;51921;51.518;-3.188;2023-02-19T00:08:42;102129.36;;;8.21;100.00
60817;BME280;51921;51.518;-3.188;2023-02-19T00:11:11;102129.34;;;8.08;100.00
60817;BME280;51921;51.518;-3.188;2023-02-19T00:13:35;102133.27;;;7.88;100.00
60817;BME280;51921;51.518;-3.188;2023-02-19T00:16:04;102140.79;;;7.96;100.00
60817;BME280;51921;51.518;-3.188;2023-02-19T00:18:24;102142.38;;;8.40;100.00
60817;BME280;51921;51.518;-3.188;2023-02-19T00:20:50;102145.87;;;8.83;100.00
60817;BME280;51921;51.518;-3.188;2023-02-19T00:23:15;102142.87;;;8.40;100.00
60817;BME280;51921;51.518;-3.188;2023-02-19T00:25:40;102139.57;;;8.45;100.00
60817;BME280;51921;51.518;-3.188;2023-02-19T00:28:06;102143.59;;;7.87;100.00
60817;BME280;51921;51.518;-3.188;2023-02-19T00:30:32;102143.68;;;8.27;100.00
60817;BME280;51921;51.518;-3.188;2023-02-19T00:35:22;102149.47;;;7.42;100.00
60817;BME280;51921;51.518;-3.188;2023-02-19T00:37:48;102150.85;;;8.18;100.00
60817;BME280;51921;51.518;-3.188;2023-02-19T00:40:13;102154.65;;;7.76;100.00
60817;BME280;51921;51.518;-3.188;2023-02-19T00:42:39;102161.67;;;7.28;100.00
60817;BME280;51921;51.518;-3.188;2023-02-19T00:45:05;102165.44;;;7.47;100.00
60817;BME280;51921;51.518;-3.188;2023-02-19T00:47:30;102171.42;;;8.11;100.00
60817;BME280;51921;51.518;-3.188;2023-02-19T00:49:55;102178.13;;;8.20;100.00
60817;BME280;51921;51.518;-3.188;2023-02-19T00:52:21;102183.10;;;8.10;100.00
60817;BME280;51921;51.518;-3.188;2023-02-19T00:54:46;102174.91;;;7.94;100.00
60817;BME280;51921;51.518;-3.188;2023-02-19T00:57:12;102183.40;;;7.74;100.00
60817;BME280;51921;51.518;-3.188;2023-02-19T00:59:37;102183.34;;;6.94;100.00
60817;BME280;51921;51.518;-3.188;2023-02-19T01:02:03;102182.44;;;6.28;100.00
60817;BME280;51921;51.518;-3.188;2023-02-19T01:04:28;102178.87;;;6.66;100.00
60817;BME280;51921;51.518;-3.188;2023-02-19T01:06:54;102182.65;;;6.93;100.00
60817;BME280;51921;51.518;-3.188;2023-02-19T01:09:19;102194.96;;;7.60;100.00
60817;BME280;51921;51.518;-3.188;2023-02-19T01:11:44;102196.90;;;7.68;100.00
60817;BME280;51921;51.518;-3.188;2023-02-19T01:14:10;102207.56;;;7.82;100.00
60817;BME280;51921;51.518;-3.188;2023-02-19T01:16:35;102206.63;;;7.53;100.00
60817;BME280;51921;51.518;-3.188;2023-02-19T01:19:01;102201.27;;;7.35;100.00
60817;BME280;51921;51.518;-3.188;2023-02-19T01:21:28;102208.53;;;6.93;100.00
60817;BME280;51921;51.518;-3.188;2023-02-19T01:23:52;102214.07;;;6.01;100.00
60817;BME280;51921;51.518;-3.188;2023-02-19T01:26:19;102221.02;;;5.68;100.00
60817;BME280;51921;51.518;-3.188;2023-02-19T01:28:43;102218.56;;;6.22;100.00
60817;BME280;51921;51.518;-3.188;2023-02-19T01:31:11;102218.31;;;6.78;100.00
60817;BME280;51921;51.518;-3.188;2023-02-19T01:33:34;102220.33;;;7.04;100.00
60817;BME280;51921;51.518;-3.188;2023-02-19T01:36:02;102224.20;;;5.83;100.00
60817;BME280;51921;51.518;-3.188;2023-02-19T01:38:25;102225.25;;;6.45;100.00
60817;BME280;51921;51.518;-3.188;2023-02-19T01:40:55;102217.14;;;5.82;100.00
60817;BME280;51921;51.518;-3.188;2023-02-19T01:43:16;102209.57;;;5.54;100.00
60817;BME280;51921;51.518;-3.188;2023-02-19T01:45:42;102211.04;;;5.91;100.00
60817;BME280;51921;51.518;-3.188;2023-02-19T01:48:11;102212.91;;;5.69;100.00
60817;BME280;51921;51.518;-3.188;2023-02-19T01:50:36;102214.85;;;5.93;100.00
60817;BME280;51921;51.518;-3.188;2023-02-19T01:53:00;102218.19;;;5.83;100.00
60817;BME280;51921;51.518;-3.188;2023-02-19T01:55:24;102220.38;;;5.70;100.00
60817;BME280;51921;51.518;-3.188;2023-02-19T01:57:51;102231.61;;;5.74;100.00
60817;BME280;51921;51.518;-3.188;2023-02-19T02:00:15;102235.02;;;5.99;100.00
60817;BME280;51921;51.518;-3.188;2023-02-19T02:02:41;102232.49;;;5.46;100.00
60817;BME280;51921;51.518;-3.188;2023-02-19T02:05:08;102234.93;;;4.73;100.00
60817;BME280;51921;51.518;-3.188;2023-02-19T02:07:30;102241.30;;;5.29;100.00
60817;BME280;51921;51.518;-3.188;2023-02-19T02:09:56;102242.56;;;5.23;100.00
60817;BME280;51921;51.518;-3.188;2023-02-19T02:12:21;102249.68;;;5.16;100.00
60817;BME280;51921;51.518;-3.188;2023-02-19T02:14:47;102253.07;;;5.94;100.00
60817;BME280;51921;51.518;-3.188;2023-02-19T02:17:17;102249.06;;;5.55;100.00
60817;BME280;51921;51.518;-3.188;2023-02-19T02:19:55;102246.33;;;5.47;100.00
60817;BME280;51921;51.518;-3.188;2023-02-19T02:22:06;102243.24;;;5.17;100.00
60817;BME280;51921;51.518;-3.188;2023-02-19T02:27:05;102256.83;;;5.68;100.00
60817;BME280;51921;51.518;-3.188;2023-02-19T02:31:49;102264.10;;;5.77;100.00
60817;BME280;51921;51.518;-3.188;2023-02-19T02:34:15;102265.84;;;5.72;100.00
60817;BME280;51921;51.518;-3.188;2023-02-19T02:36:39;102260.72;;;5.75;100.00
60817;BME280;51921;51.518;-3.188;2023-02-19T02:39:05;102261.18;;;5.03;100.00
60817;BME280;51921;51.518;-3.188;2023-02-19T02:41:28;102257.76;;;5.19;100.00
60817;BME280;51921;51.518;-3.188;2023-02-19T02:43:54;102256.25;;;4.70;100.00
60817;BME280;51921;51.518;-3.188;2023-02-19T02:46:22;102253.00;;;4.75;100.00
60817;BME280;51921;51.518;-3.188;2023-02-19T02:48:47;102245.02;;;4.00;100.00
60817;BME280;51921;51.518;-3.188;2023-02-19T02:51:15;102256.35;;;4.51;100.00
60817;BME280;51921;51.518;-3.188;2023-02-19T02:53:39;102252.17;;;4.89;100.00
60817;BME280;51921;51.518;-3.188;2023-02-19T02:56:01;102254.26;;;4.59;100.00
60817;BME280;51921;51.518;-3.188;2023-02-19T02:58:27;102254.42;;;3.98;100.00
60817;BME280;51921;51.518;-3.188;2023-02-19T03:00:56;102265.03;;;4.03;100.00
60817;BME280;51921;51.518;-3.188;2023-02-19T03:03:20;102260.68;;;4.32;100.00
60817;BME280;51921;51.518;-3.188;2023-02-19T03:05:44;102258.33;;;4.19;100.00
60817;BME280;51921;51.518;-3.188;2023-02-19T03:08:09;102259.22;;;3.91;100.00
60817;BME280;51921;51.518;-3.188;2023-02-19T03:10:37;102256.85;;;3.99;100.00
60817;BME280;51921;51.518;-3.188;2023-02-19T03:13:01;102254.08;;;3.69;100.00
60817;BME280;51921;51.518;-3.188;2023-02-19T03:15:28;102259.82;;;3.74;100.00
60817;BME280;51921;51.518;-3.188;2023-02-19T03:17:53;102266.17;;;4.48;100.00
60817;BME280;51921;51.518;-3.188;2023-02-19T03:20:20;102276.64;;;4.32;100.00
60817;BME280;51921;51.518;-3.188;2023-02-19T03:22:43;102279.76;;;5.02;100.00
60817;BME280;51921;51.518;-3.188;2023-02-19T03:25:10;102279.05;;;4.24;100.00
60817;BME280;51921;51.518;-3.188;2023-02-19T03:27:34;102284.88;;;4.42;100.00
60817;BME280;51921;51.518;-3.188;2023-02-19T03:30:02;102281.11;;;4.68;100.00
60817;BME280;51921;51.518;-3.188;2023-02-19T03:32:28;102286.23;;;4.33;100.00
60817;BME280;51921;51.518;-3.188;2023-02-19T03:34:54;102285.08;;;4.49;100.00
60817;BME280;51921;51.518;-3.188;2023-02-19T03:37:19;102287.20;;;4.75;100.00
60817;BME280;51921;51.518;-3.188;2023-02-19T03:39:40;102294.45;;;4.92;100.00
60817;BME280;51921;51.518;-3.188;2023-02-19T03:42:14;102299.06;;;5.20;100.00
60817;BME280;51921;51.518;-3.188;2023-02-19T03:44:39;102301.92;;;6.13;100.00
60817;BME280;51921;51.518;-3.188;2023-02-19T03:47:01;102299.12;;;5.00;100.00
60817;BME280;51921;51.518;-3.188;2023-02-19T03:49:27;102301.78;;;5.44;100.00
60817;BME280;51921;51.518;-3.188;2023-02-19T03:51:52;102298.98;;;5.37;100.00
60817;BME280;51921;51.518;-3.188;2023-02-19T03:54:18;102306.97;;;6.02;100.00
60817;BME280;51921;51.518;-3.188;2023-02-19T03:56:44;102309.89;;;6.47;100.00
60817;BME280;51921;51.518;-3.188;2023-02-19T03:59:09;102317.22;;;6.40;100.00
60817;BME280;51921;51.518;-3.188;2023-02-19T04:01:34;102314.70;;;5.62;100.00
60817;BME280;51921;51.518;-3.188;2023-02-19T04:03:57;102316.94;;;5.23;100.00
60817;BME280;51921;51.518;-3.188;2023-02-19T04:06:25;102320.88;;;6.94;100.00
60817;BME280;51921;51.518;-3.188;2023-02-19T04:08:49;102320.05;;;6.31;100.00
60817;BME280;51921;51.518;-3.188;2023-02-19T04:11:11;102326.82;;;5.52;100.00
60817;BME280;51921;51.518;-3.188;2023-02-19T04:13:42;102325.12;;;5.72;100.00
60817;BME280;51921;51.518;-3.188;2023-02-19T04:16:06;102332.19;;;5.55;100.00
60817;BME280;51921;51.518;-3.188;2023-02-19T04:18:31;102337.03;;;6.61;100.00
60817;BME280;51921;51.518;-3.188;2023-02-19T04:20:53;102335.11;;;5.77;100.00
60817;BME280;51921;51.518;-3.188;2023-02-19T04:23:21;102339.02;;;5.84;100.00
60817;BME280;51921;51.518;-3.188;2023-02-19T04:25:47;102344.68;;;5.61;100.00
60817;BME280;51921;51.518;-3.188;2023-02-19T04:28:09;102352.91;;;5.02;100.00
60817;BME280;51921;51.518;-3.188;2023-02-19T04:30:34;102342.57;;;5.74;100.00
60817;BME280;51921;51.518;-3.188;2023-02-19T04:33:00;102342.24;;;5.80;100.00
60817;BME280;51921;51.518;-3.188;2023-02-19T04:35:25;102345.48;;;5.36;100.00
60817;BME280;51921;51.518;-3.188;2023-02-19T04:37:51;102338.93;;;5.26;100.00
60817;BME280;51921;51.518;-3.188;2023-02-19T04:40:16;102348.29;;;4.12;100.00
60817;BME280;51921;51.518;-3.188;2023-02-19T04:42:42;102346.66;;;4.85;100.00
60817;BME280;51921;51.518;-3.188;2023-02-19T04:45:08;102354.34;;;4.38;100.00
60817;BME280;51921;51.518;-3.188;2023-02-19T04:47:33;102367.20;;;5.31;100.00
60817;BME280;51921;51.518;-3.188;2023-02-19T04:49:58;102365.87;;;5.72;100.00
60817;BME280;51921;51.518;-3.188;2023-02-19T04:52:24;102373.95;;;5.05;100.00
60817;BME280;51921;51.518;-3.188;2023-02-19T04:54:49;102372.20;;;4.82;100.00
60817;BME280;51921;51.518;-3.188;2023-02-19T04:57:15;102369.94;;;3.97;100.00
60817;BME280;51921;51.518;-3.188;2023-02-19T04:59:40;102368.78;;;4.36;100.00
60817;BME280;51921;51.518;-3.188;2023-02-19T05:02:06;102364.36;;;4.45;100.00
60817;BME280;51921;51.518;-3.188;2023-02-19T05:04:32;102368.82;;;5.21;100.00
60817;BME280;51921;51.518;-3.188;2023-02-19T05:06:58;102386.68;;;4.58;100.00
60817;BME280;51921;51.518;-3.188;2023-02-19T05:09:23;102387.57;;;4.66;100.00
60817;BME280;51921;51.518;-3.188;2023-02-19T05:11:48;102398.90;;;4.79;100.00
60817;BME280;51921;51.518;-3.188;2023-02-19T05:14:14;102398.81;;;5.56;100.00
60817;BME280;51921;51.518;-3.188;2023-02-19T05:16:39;102404.87;;;5.07;100.00
60817;BME280;51921;51.518;-3.188;2023-02-19T05:19:05;102405.91;;;5.33;100.00
60817;BME280;51921;51.518;-3.188;2023-02-19T05:21:30;102399.08;;;5.83;100.00
60817;BME280;51921;51.518;-3.188;2023-02-19T05:23:55;102394.65;;;4.73;100.00
60817;BME280;51921;51.518;-3.188;2023-02-19T05:26:22;102398.19;;;5.22;100.00
60817;BME280;51921;51.518;-3.188;2023-02-19T05:28:47;102399.81;;;6.15;100.00
60817;BME280;51921;51.518;-3.188;2023-02-19T05:31:12;102404.62;;;5.17;100.00
60817;BME280;51921;51.518;-3.188;2023-02-19T05:33:37;102412.37;;;4.90;100.00
60817;BME280;51921;51.518;-3.188;2023-02-19T05:36:05;102419.30;;;4.36;100.00
60817;BME280;51921;51.518;-3.188;2023-02-19T05:38:28;102415.47;;;5.08;100.00
60817;BME280;51921;51.518;-3.188;2023-02-19T05:40:54;102414.54;;;4.36;100.00
60817;BME280;51921;51.518;-3.188;2023-02-19T05:43:19;102419.27;;;4.06;100.00
60817;BME280;51921;51.518;-3.188;2023-02-19T05:45:45;102423.36;;;4.51;100.00
60817;BME280;51921;51.518;-3.188;2023-02-19T05:48:11;102428.31;;;4.09;100.00
60817;BME280;51921;51.518;-3.188;2023-02-19T05:50:36;102428.90;;;4.85;100.00
60817;BME280;51921;51.518;-3.188;2023-02-19T05:53:03;102427.79;;;4.82;100.00
60817;BME280;51921;51.518;-3.188;2023-02-19T05:55:27;102436.78;;;4.72;100.00
60817;BME280;51921;51.518;-3.188;2023-02-19T05:57:52;102436.08;;;5.18;100.00
60817;BME280;51921;51.518;-3.188;2023-02-19T06:00:18;102444.76;;;5.19;100.00
60817;BME280;51921;51.518;-3.188;2023-02-19T06:02:43;102445.72;;;4.83;100.00
60817;BME280;51921;51.518;-3.188;2023-02-19T06:05:08;102456.51;;;5.03;100.00
60817;BME280;51921;51.518;-3.188;2023-02-19T06:07:34;102464.39;;;5.00;100.00
60817;BME280;51921;51.518;-3.188;2023-02-19T06:09:59;102473.79;;;4.05;100.00
60817;BME280;51921;51.518;-3.188;2023-02-19T06:12:24;102470.71;;;5.47;100.00
60817;BME280;51921;51.518;-3.188;2023-02-19T06:14:50;102472.06;;;4.61;100.00
60817;BME280;51921;51.518;-3.188;2023-02-19T06:17:15;102471.33;;;6.67;100.00
60817;BME280;51921;51.518;-3.188;2023-02-19T06:19:41;102467.82;;;5.56;100.00
60817;BME280;51921;51.518;-3.188;2023-02-19T06:22:07;102462.04;;;5.86;100.00
60817;BME280;51921;51.518;-3.188;2023-02-19T06:24:32;102464.23;;;5.19;100.00
60817;BME280;51921;51.518;-3.188;2023-02-19T06:26:57;102469.39;;;4.22;100.00
60817;BME280;51921;51.518;-3.188;2023-02-19T06:29:23;102483.53;;;4.50;100.00
60817;BME280;51921;51.518;-3.188;2023-02-19T06:31:48;102483.97;;;3.86;100.00
60817;BME280;51921;51.518;-3.188;2023-02-19T06:34:13;102479.80;;;3.57;100.00
60817;BME280;51921;51.518;-3.188;2023-02-19T06:36:39;102473.64;;;3.57;100.00
60817;BME280;51921;51.518;-3.188;2023-02-19T06:39:05;102457.63;;;3.48;100.00
60817;BME280;51921;51.518;-3.188;2023-02-19T06:41:30;102453.05;;;3.47;100.00
60817;BME280;51921;51.518;-3.188;2023-02-19T06:44:01;102460.68;;;3.25;100.00
60817;BME280;51921;51.518;-3.188;2023-02-19T06:46:21;102468.00;;;3.50;100.00
60817;BME280;51921;51.518;-3.188;2023-02-19T06:48:47;102472.13;;;3.77;100.00
60817;BME280;51921;51.518;-3.188;2023-02-19T06:51:15;102478.52;;;3.18;100.00
60817;BME280;51921;51.518;-3.188;2023-02-19T06:53:38;102487.72;;;3.88;100.00
60817;BME280;51921;51.518;-3.188;2023-02-19T06:56:06;102483.49;;;4.07;100.00
60817;BME280;51921;51.518;-3.188;2023-02-19T06:58:29;102480.51;;;4.93;100.00
60817;BME280;51921;51.518;-3.188;2023-02-19T07:00:54;102474.48;;;3.79;100.00
60817;BME280;51921;51.518;-3.188;2023-02-19T07:03:20;102475.27;;;4.05;100.00
60817;BME280;51921;51.518;-3.188;2023-02-19T07:05:45;102477.67;;;4.50;100.00
60817;BME280;51921;51.518;-3.188;2023-02-19T07:08:11;102474.71;;;5.65;100.00
60817;BME280;51921;51.518;-3.188;2023-02-19T07:10:36;102477.59;;;6.08;100.00
60817;BME280;51921;51.518;-3.188;2023-02-19T07:13:01;102473.02;;;5.76;100.00
60817;BME280;51921;51.518;-3.188;2023-02-19T07:15:27;102465.75;;;4.80;100.00
60817;BME280;51921;51.518;-3.188;2023-02-19T07:17:52;102454.45;;;5.50;100.00
60817;BME280;51921;51.518;-3.188;2023-02-19T07:20:18;102456.56;;;4.03;100.00
60817;BME280;51921;51.518;-3.188;2023-02-19T07:22:43;102463.96;;;4.43;100.00
60817;BME280;51921;51.518;-3.188;2023-02-19T07:25:09;102463.80;;;4.11;100.00
60817;BME280;51921;51.518;-3.188;2023-02-19T07:27:33;102474.42;;;4.15;100.00
60817;BME280;51921;51.518;-3.188;2023-02-19T07:29:59;102473.13;;;3.59;100.00
60817;BME280;51921;51.518;-3.188;2023-02-19T07:32:24;102467.52;;;4.11;100.00
60817;BME280;51921;51.518;-3.188;2023-02-19T07:34:50;102470.24;;;4.06;100.00
60817;BME280;51921;51.518;-3.188;2023-02-19T07:37:15;102476.25;;;3.63;100.00
60817;BME280;51921;51.518;-3.188;2023-02-19T07:39:41;102480.57;;;3.79;100.00
60817;BME280;51921;51.518;-3.188;2023-02-19T07:42:07;102479.37;;;3.53;100.00
60817;BME280;51921;51.518;-3.188;2023-02-19T07:44:33;102487.99;;;3.64;100.00
60817;BME280;51921;51.518;-3.188;2023-02-19T07:46:58;102490.30;;;3.89;100.00
60817;BME280;51921;51.518;-3.188;2023-02-19T07:49:23;102498.42;;;3.73;100.00
60817;BME280;51921;51.518;-3.188;2023-02-19T07:51:49;102509.38;;;4.50;100.00
60817;BME280;51921;51.518;-3.188;2023-02-19T07:54:14;102521.42;;;3.59;100.00
60817;BME280;51921;51.518;-3.188;2023-02-19T07:56:39;102524.43;;;4.33;100.00
60817;BME280;51921;51.518;-3.188;2023-02-19T07:59:05;102521.81;;;4.80;100.00
60817;BME280;51921;51.518;-3.188;2023-02-19T08:01:30;102528.11;;;4.57;100.00
60817;BME280;51921;51.518;-3.188;2023-02-19T08:03:57;102533.27;;;5.18;100.00
60817;BME280;51921;51.518;-3.188;2023-02-19T08:06:21;102535.46;;;4.82;100.00
60817;BME280;51921;51.518;-3.188;2023-02-19T08:08:46;102537.88;;;3.99;100.00
60817;BME280;51921;51.518;-3.188;2023-02-19T08:11:12;102534.22;;;4.32;100.00
60817;BME280;51921;51.518;-3.188;2023-02-19T08:13:38;102536.85;;;4.79;100.00
60817;BME280;51921;51.518;-3.188;2023-02-19T08:16:11;102533.04;;;5.08;100.00
60817;BME280;51921;51.518;-3.188;2023-02-19T08:18:31;102534.84;;;4.93;100.00
60817;BME280;51921;51.518;-3.188;2023-02-19T08:20:55;102541.18;;;4.39;100.00
60817;BME280;51921;51.518;-3.188;2023-02-19T08:23:21;102541.39;;;4.59;100.00
60817;BME280;51921;51.518;-3.188;2023-02-19T08:25:47;102536.42;;;4.59;100.00
60817;BME280;51921;51.518;-3.188;2023-02-19T08:28:12;102536.70;;;4.49;100.00
60817;BME280;51921;51.518;-3.188;2023-02-19T08:30:38;102533.16;;;4.57;100.00
60817;BME280;51921;51.518;-3.188;2023-02-19T08:33:04;102531.53;;;4.59;100.00
60817;BME280;51921;51.518;-3.188;2023-02-19T08:35:34;102540.90;;;3.79;100.00
60817;BME280;51921;51.518;-3.188;2023-02-19T08:37:54;102541.21;;;6.01;100.00
60817;BME280;51921;51.518;-3.188;2023-02-19T08:40:19;102538.84;;;6.09;100.00
60817;BME280;51921;51.518;-3.188;2023-02-19T08:42:45;102544.43;;;5.99;100.00
60817;BME280;51921;51.518;-3.188;2023-02-19T08:47:36;102544.41;;;6.78;100.00
60817;BME280;51921;51.518;-3.188;2023-02-19T08:50:01;102550.89;;;6.62;100.00
60817;BME280;51921;51.518;-3.188;2023-02-19T08:52:26;102563.73;;;6.05;100.00
60817;BME280;51921;51.518;-3.188;2023-02-19T08:54:51;102555.76;;;6.47;100.00
60817;BME280;51921;51.518;-3.188;2023-02-19T08:57:17;102555.31;;;5.33;100.00
60817;BME280;51921;51.518;-3.188;2023-02-19T08:59:43;102555.49;;;5.77;100.00
60817;BME280;51921;51.518;-3.188;2023-02-19T09:02:08;102556.58;;;6.02;100.00
60817;BME280;51921;51.518;-3.188;2023-02-19T09:04:34;102560.11;;;4.95;100.00
60817;BME280;51921;51.518;-3.188;2023-02-19T09:07:05;102563.16;;;5.76;100.00
60817;BME280;51921;51.518;-3.188;2023-02-19T09:09:25;102569.63;;;5.76;100.00
60817;BME280;51921;51.518;-3.188;2023-02-19T09:11:50;102577.52;;;4.54;100.00
60817;BME280;51921;51.518;-3.188;2023-02-19T09:14:15;102573.60;;;6.01;100.00
60817;BME280;51921;51.518;-3.188;2023-02-19T09:16:41;102566.05;;;6.30;100.00
60817;BME280;51921;51.518;-3.188;2023-02-19T09:19:07;102558.29;;;7.08;100.00
60817;BME280;51921;51.518;-3.188;2023-02-19T09:21:32;102550.26;;;7.22;100.00
60817;BME280;51921;51.518;-3.188;2023-02-19T09:23:58;102534.65;;;6.86;100.00
60817;BME280;51921;51.518;-3.188;2023-02-19T09:26:23;102534.91;;;6.75;100.00
60817;BME280;51921;51.518;-3.188;2023-02-19T09:28:49;102544.95;;;7.55;100.00
60817;BME280;51921;51.518;-3.188;2023-02-19T09:31:15;102547.97;;;7.20;100.00
60817;BME280;51921;51.518;-3.188;2023-02-19T09:33:42;102555.88;;;7.73;100.00
60817;BME280;51921;51.518;-3.188;2023-02-19T09:36:06;102566.19;;;7.24;100.00
60817;BME280;51921;51.518;-3.188;2023-02-19T09:38:31;102582.31;;;6.26;100.00
60817;BME280;51921;51.518;-3.188;2023-02-19T09:40:57;102588.71;;;7.72;100.00
60817;BME280;51921;51.518;-3.188;2023-02-19T09:43:23;102605.13;;;8.04;100.00
60817;BME280;51921;51.518;-3.188;2023-02-19T09:45:48;102605.31;;;7.54;100.00
60817;BME280;51921;51.518;-3.188;2023-02-19T09:48:13;102598.65;;;7.52;100.00
60817;BME280;51921;51.518;-3.188;2023-02-19T09:50:41;102593.73;;;7.79;100.00
60817;BME280;51921;51.518;-3.188;2023-02-19T09:53:09;102599.49;;;8.38;100.00
60817;BME280;51921;51.518;-3.188;2023-02-19T09:55:31;102603.78;;;8.12;100.00
60817;BME280;51921;51.518;-3.188;2023-02-19T09:57:55;102604.45;;;8.49;99.62
60817;BME280;51921;51.518;-3.188;2023-02-19T10:00:22;102600.01;;;8.27;99.02
60817;BME280;51921;51.518;-3.188;2023-02-19T10:02:46;102598.25;;;6.73;100.00
60817;BME280;51921;51.518;-3.188;2023-02-19T10:05:12;102605.13;;;8.41;100.00
60817;BME280;51921;51.518;-3.188;2023-02-19T10:07:39;102607.63;;;7.56;100.00
60817;BME280;51921;51.518;-3.188;2023-02-19T10:12:30;102634.50;;;8.91;100.00
60817;BME280;51921;51.518;-3.188;2023-02-19T10:14:59;102635.21;;;7.63;100.00
60817;BME280;51921;51.518;-3.188;2023-02-19T10:17:22;102626.13;;;7.81;100.00
60817;BME280;51921;51.518;-3.188;2023-02-19T10:19:44;102613.91;;;8.05;100.00
60817;BME280;51921;51.518;-3.188;2023-02-19T10:22:11;102601.28;;;8.47;100.00
60817;BME280;51921;51.518;-3.188;2023-02-19T10:24:35;102600.81;;;8.97;100.00
60817;BME280;51921;51.518;-3.188;2023-02-19T10:27:01;102611.11;;;9.07;100.00
60817;BME280;51921;51.518;-3.188;2023-02-19T10:29:26;102616.22;;;8.03;100.00
60817;BME280;51921;51.518;-3.188;2023-02-19T10:34:19;102607.83;;;8.89;100.00
60817;BME280;51921;51.518;-3.188;2023-02-19T10:36:43;102597.21;;;8.39;100.00
60817;BME280;51921;51.518;-3.188;2023-02-19T10:41:34;102606.60;;;8.45;100.00
60817;BME280;51921;51.518;-3.188;2023-02-19T10:44:03;102607.58;;;9.94;97.19
60817;BME280;51921;51.518;-3.188;2023-02-19T10:46:27;102611.26;;;8.78;98.26
60817;BME280;51921;51.518;-3.188;2023-02-19T10:48:52;102606.59;;;8.67;100.00
60817;BME280;51921;51.518;-3.188;2023-02-19T10:51:15;102604.88;;;8.97;100.00
60817;BME280;51921;51.518;-3.188;2023-02-19T10:53:44;102599.93;;;8.21;100.00
60817;BME280;51921;51.518;-3.188;2023-02-19T10:56:09;102594.09;;;8.97;99.85
60817;BME280;51921;51.518;-3.188;2023-02-19T10:58:32;102587.92;;;8.64;100.00
60817;BME280;51921;51.518;-3.188;2023-02-19T11:01:13;102595.27;;;7.39;100.00
60817;BME280;51921;51.518;-3.188;2023-02-19T11:03:22;102589.78;;;7.92;100.00
60817;BME280;51921;51.518;-3.188;2023-02-19T11:05:58;102585.81;;;8.82;100.00
60817;BME280;51921;51.518;-3.188;2023-02-19T11:08:20;102581.66;;;9.26;99.58
60817;BME280;51921;51.518;-3.188;2023-02-19T11:10:40;102586.18;;;8.92;100.00
60817;BME280;51921;51.518;-3.188;2023-02-19T11:13:06;102588.04;;;8.93;100.00
60817;BME280;51921;51.518;-3.188;2023-02-19T11:15:31;102592.09;;;9.57;97.68
60817;BME280;51921;51.518;-3.188;2023-02-19T11:17:58;102593.12;;;9.30;96.08
60817;BME280;51921;51.518;-3.188;2023-02-19T11:20:21;102594.80;;;9.09;94.72
60817;BME280;51921;51.518;-3.188;2023-02-19T11:22:46;102595.46;;;8.64;97.85
60817;BME280;51921;51.518;-3.188;2023-02-19T11:25:18;102595.50;;;9.01;100.00
60817;BME280;51921;51.518;-3.188;2023-02-19T11:30:21;102608.42;;;8.92;99.47
60817;BME280;51921;51.518;-3.188;2023-02-19T11:32:29;102617.91;;;8.79;98.19
60817;BME280;51921;51.518;-3.188;2023-02-19T11:37:20;102630.91;;;8.65;98.47
60817;BME280;51921;51.518;-3.188;2023-02-19T11:39:47;102625.49;;;7.64;99.94
60817;BME280;51921;51.518;-3.188;2023-02-19T11:42:22;102618.07;;;8.31;98.84
60817;BME280;51921;51.518;-3.188;2023-02-19T11:44:45;102630.66;;;8.90;96.01
60817;BME280;51921;51.518;-3.188;2023-02-19T11:49:35;102625.91;;;7.85;97.88
60817;BME280;51921;51.518;-3.188;2023-02-19T11:52:03;102618.48;;;8.05;99.61
60817;BME280;51921;51.518;-3.188;2023-02-19T11:54:30;102612.39;;;8.18;98.46
60817;BME280;51921;51.518;-3.188;2023-02-19T11:56:47;102606.22;;;8.59;98.65
60817;BME280;51921;51.518;-3.188;2023-02-19T11:59:14;102607.63;;;8.81;99.53
60817;BME280;51921;51.518;-3.188;2023-02-19T12:01:50;102607.08;;;8.21;98.81
60817;BME280;51921;51.518;-3.188;2023-02-19T12:06:30;102595.89;;;8.75;100.00
60817;BME280;51921;51.518;-3.188;2023-02-19T12:09:01;102598.27;;;8.68;100.00
60817;BME280;51921;51.518;-3.188;2023-02-19T12:11:31;102592.79;;;8.70;97.14
60817;BME280;51921;51.518;-3.188;2023-02-19T12:13:53;102586.49;;;9.31;96.29
60817;BME280;51921;51.518;-3.188;2023-02-19T12:16:16;102589.23;;;8.90;95.06
60817;BME280;51921;51.518;-3.188;2023-02-19T12:18:47;102586.65;;;8.68;94.12
60817;BME280;51921;51.518;-3.188;2023-02-19T12:21:08;102580.21;;;9.01;93.74
60817;BME280;51921;51.518;-3.188;2023-02-19T12:23:32;102579.67;;;9.19;95.65
60817;BME280;51921;51.518;-3.188;2023-02-19T12:25:56;102570.04;;;8.83;96.18
60817;BME280;51921;51.518;-3.188;2023-02-19T12:28:26;102570.39;;;8.18;100.00
60817;BME280;51921;51.518;-3.188;2023-02-19T12:30:52;102576.23;;;8.64;98.50
60817;BME280;51921;51.518;-3.188;2023-02-19T12:35:41;102557.47;;;8.71;99.03
60817;BME280;51921;51.518;-3.188;2023-02-19T12:38:03;102558.10;;;8.38;99.93
60817;BME280;51921;51.518;-3.188;2023-02-19T12:40:32;102559.55;;;8.57;95.84
60817;BME280;51921;51.518;-3.188;2023-02-19T12:42:55;102555.55;;;8.50;93.62
60817;BME280;51921;51.518;-3.188;2023-02-19T12:45:18;102554.07;;;8.71;94.66
60817;BME280;51921;51.518;-3.188;2023-02-19T12:47:39;102550.93;;;8.48;95.13
60817;BME280;51921;51.518;-3.188;2023-02-19T12:50:07;102541.36;;;9.42;90.43
60817;BME280;51921;51.518;-3.188;2023-02-19T12:52:33;102542.35;;;8.65;91.77
60817;BME280;51921;51.518;-3.188;2023-02-19T12:54:56;102547.47;;;8.68;92.78
60817;BME280;51921;51.518;-3.188;2023-02-19T12:57:21;102544.64;;;8.48;92.08
60817;BME280;51921;51.518;-3.188;2023-02-19T12:59:49;102542.17;;;8.45;96.21